createdAt,value
2022-11-28T00:01:49.418Z,90.14
2022-11-28T00:06:49.333Z,89.83
2022-11-28T00:11:49.448Z,90.03
2022-11-28T00:16:49.323Z,89.94
2022-11-28T00:21:49.190Z,90.34
2022-11-28T00:26:49.145Z,90.24
2022-11-28T00:31:49.107Z,90.03
2022-11-28T00:36:49.027Z,90.14
2022-11-28T00:41:48.949Z,89.94
2022-11-28T00:46:48.914Z,90.34
2022-11-28T00:51:48.845Z,89.22
2022-11-28T00:56:48.795Z,89.07
2022-11-28T01:01:48.778Z,88.82
2022-11-28T01:06:48.674Z,88.51
2022-11-28T01:11:48.613Z,89.13
2022-11-28T01:16:49.774Z,89.54
2022-11-28T01:21:48.723Z,89.58
2022-11-28T01:26:48.657Z,90.06
2022-11-28T01:31:49.793Z,90.92
2022-11-28T01:36:48.328Z,90.26
2022-11-28T01:41:48.306Z,90.36
2022-11-28T01:46:48.353Z,89.81
2022-11-28T01:51:48.199Z,90.06
2022-11-28T01:56:48.122Z,90.26
2022-11-28T02:01:48.233Z,90.26
2022-11-28T02:06:48.025Z,89.85
2022-11-28T02:11:47.980Z,90.47
2022-11-28T02:16:47.914Z,90.09
2022-11-28T02:21:47.880Z,89.79
2022-11-28T02:26:47.829Z,89.69
2022-11-28T02:31:47.786Z,89.17
2022-11-28T02:36:47.691Z,89.79
2022-11-28T02:41:47.732Z,89.58
2022-11-28T02:46:47.644Z,89.07
2022-11-28T02:51:47.566Z,88.62
2022-11-28T02:56:47.496Z,88.51
2022-11-28T03:01:47.599Z,88.51
2022-11-28T03:06:47.404Z,88.41
2022-11-28T03:11:47.357Z,88.20
2022-11-28T03:16:47.301Z,87.90
2022-11-28T03:21:47.210Z,88.72
2022-11-28T03:26:47.160Z,88.14
2022-11-28T03:31:47.153Z,88.90
2022-11-28T03:36:47.052Z,89.11
2022-11-28T03:41:47.010Z,88.59
2022-11-28T03:46:46.952Z,88.59
2022-11-28T03:51:46.918Z,88.29
2022-11-28T03:56:46.813Z,87.77
2022-11-28T04:01:46.971Z,87.87
2022-11-28T04:06:46.727Z,88.02
2022-11-28T04:11:46.823Z,87.98
2022-11-28T04:16:52.195Z,87.92
2022-11-28T04:21:47.575Z,87.26
2022-11-28T04:26:46.491Z,87.36
2022-11-28T04:31:46.496Z,87.60
2022-11-28T04:36:46.389Z,87.40
2022-11-28T04:41:46.330Z,86.54
2022-11-28T04:46:46.260Z,87.98
2022-11-28T04:51:46.219Z,87.87
2022-11-28T04:56:46.145Z,87.98
2022-11-28T05:01:46.150Z,87.98
2022-11-28T05:06:54.927Z,86.95
2022-11-28T05:11:46.093Z,87.05
2022-11-28T05:16:46.018Z,87.87
2022-11-28T05:21:45.957Z,88.18
2022-11-28T05:26:45.845Z,88.29
2022-11-28T05:31:45.855Z,87.92
2022-11-28T05:36:45.732Z,86.74
2022-11-28T05:41:45.820Z,86.85
2022-11-28T05:46:45.597Z,86.23
2022-11-28T05:51:45.560Z,85.68
2022-11-28T05:56:45.482Z,85.88
2022-11-28T06:01:45.678Z,86.43
2022-11-28T06:06:45.394Z,85.51
2022-11-28T06:11:45.336Z,86.23
2022-11-28T06:16:45.473Z,85.71
2022-11-28T06:21:45.264Z,85.51
2022-11-28T06:26:45.193Z,85.92
2022-11-28T06:31:45.205Z,85.10
2022-11-28T06:36:45.116Z,85.68
2022-11-28T06:41:45.072Z,85.41
2022-11-28T06:46:45.000Z,85.96
2022-11-28T06:51:44.875Z,83.97
2022-11-28T06:56:44.880Z,84.07
2022-11-28T07:01:44.802Z,83.41
2022-11-28T07:06:44.830Z,83.97
2022-11-28T07:11:44.689Z,84.79
2022-11-28T07:16:44.655Z,84.69
2022-11-28T07:21:44.574Z,84.62
2022-11-28T07:26:44.478Z,83.45
2022-11-28T07:31:44.455Z,84.17
2022-11-28T07:36:44.401Z,84.03
2022-11-28T07:41:44.318Z,84.54
2022-11-28T07:46:44.331Z,84.03
2022-11-28T07:51:44.254Z,83.20
2022-11-28T07:57:11.492Z,83.41
2022-11-28T08:01:45.163Z,83.31
2022-11-28T08:06:44.023Z,83.20
2022-11-28T08:11:44.026Z,84.13
2022-11-28T08:16:44.019Z,83.37
2022-11-28T08:21:43.899Z,83.13
2022-11-28T08:26:43.864Z,84.16
2022-11-28T08:31:43.759Z,83.89
2022-11-28T08:36:43.734Z,83.89
2022-11-28T08:41:43.677Z,84.05
2022-11-28T08:46:43.596Z,84.05
2022-11-28T08:51:43.582Z,84.26
2022-11-28T08:56:43.531Z,84.56
2022-11-28T09:01:43.520Z,84.56
2022-11-28T09:06:43.421Z,84.05
2022-11-28T09:11:43.322Z,83.91
2022-11-28T09:16:43.396Z,84.63
2022-11-28T09:21:43.252Z,84.01
2022-11-28T09:26:43.188Z,84.32
2022-11-28T09:31:47.198Z,83.36
2022-11-28T09:36:43.091Z,85.11
2022-11-28T09:41:43.036Z,83.91
2022-11-28T09:46:42.983Z,83.26
2022-11-28T09:51:42.886Z,83.32
2022-11-28T09:56:42.845Z,83.36
2022-11-28T10:01:42.786Z,83.87
2022-11-28T10:06:42.746Z,83.67
2022-11-28T10:11:42.664Z,83.36
2022-11-28T10:16:42.735Z,84.25
2022-11-28T10:21:42.591Z,84.96
2022-11-28T10:26:42.538Z,84.34
2022-11-28T10:31:42.479Z,85.21
2022-11-28T10:36:42.430Z,85.38
2022-11-28T10:41:42.344Z,85.21
2022-11-28T10:46:42.399Z,85.41
2022-11-28T10:51:42.258Z,86.13
2022-11-28T10:56:42.163Z,86.54
2022-11-28T11:01:47.255Z,85.72
2022-11-28T11:07:53.656Z,85.58
2022-11-28T11:12:53.387Z,85.62
2022-11-28T11:17:53.395Z,86.44
2022-11-28T11:22:53.251Z,86.24
2022-11-28T11:27:53.282Z,87.37
2022-11-28T11:32:53.160Z,86.40
2022-11-28T11:37:53.236Z,86.75
2022-11-28T11:42:53.106Z,86.81
2022-11-28T11:47:53.051Z,86.91
2022-11-28T11:52:53.051Z,86.95
2022-11-28T11:57:52.993Z,87.63
2022-11-28T12:02:52.904Z,87.98
2022-11-28T12:07:52.971Z,87.77
2022-11-28T12:12:52.919Z,87.77
2022-11-28T12:22:53.729Z,87.63
2022-11-28T12:27:52.645Z,88.49
2022-11-28T12:32:52.565Z,89.11
2022-11-28T12:38:10.346Z,89.21
2022-11-28T12:42:53.481Z,89.42
2022-11-28T12:47:52.337Z,90.14
2022-11-28T12:52:52.343Z,89.93
2022-11-28T12:57:52.205Z,90.69
2022-11-28T13:02:52.206Z,90.38
2022-11-28T13:07:52.343Z,91.20
2022-11-28T13:12:52.066Z,91.66
2022-11-28T13:17:51.996Z,91.72
2022-11-28T13:22:52.135Z,92.17
2022-11-28T13:27:51.951Z,92.33
2022-11-28T13:32:52.017Z,92.03
2022-11-28T13:43:06.588Z,91.82
2022-11-28T13:47:52.676Z,91.67
2022-11-28T13:52:51.644Z,91.16
2022-11-28T13:57:51.644Z,91.06
2022-11-28T14:02:52.637Z,91.22
2022-11-28T14:07:51.539Z,91.37
2022-11-28T14:12:51.415Z,92.08
2022-11-28T14:17:51.445Z,91.74
2022-11-28T14:22:51.363Z,91.42
2022-11-28T14:27:51.273Z,91.53
2022-11-28T14:32:51.205Z,92.04
2022-11-28T14:37:51.130Z,91.63
2022-11-28T14:43:00.431Z,91.99
2022-11-28T14:47:52.091Z,91.99
2022-11-28T14:52:50.955Z,92.29
2022-11-28T14:57:51.035Z,92.40
2022-11-28T15:02:50.928Z,92.64
2022-11-28T15:07:50.987Z,92.60
2022-11-28T15:12:50.747Z,92.60
2022-11-28T15:17:50.779Z,92.54
2022-11-28T15:22:50.671Z,92.50
2022-11-28T15:27:50.580Z,92.40
2022-11-28T15:32:50.588Z,92.29
2022-11-28T15:37:50.475Z,92.29
2022-11-28T15:42:50.512Z,92.40
2022-11-28T15:47:50.420Z,92.50
2022-11-28T15:52:50.378Z,92.80
2022-11-28T15:57:50.296Z,92.80
2022-11-28T16:02:50.231Z,92.40
2022-11-28T16:07:50.201Z,92.40
2022-11-28T16:12:50.111Z,92.50
2022-11-28T16:17:50.036Z,92.70
2022-11-28T16:22:50.032Z,92.70
2022-11-28T16:27:49.921Z,92.91
2022-11-28T16:32:49.871Z,92.80
2022-11-28T16:37:49.881Z,92.60
2022-11-28T16:42:49.763Z,92.80
2022-11-28T16:47:49.752Z,92.80
2022-11-28T16:52:49.650Z,93.21
2022-11-28T16:57:49.650Z,92.76
2022-11-28T17:02:49.555Z,92.76
2022-11-28T17:07:58.446Z,92.21
2022-11-28T17:12:49.529Z,92.55
2022-11-28T17:17:49.490Z,92.97
2022-11-28T17:22:49.399Z,93.07
2022-11-28T17:27:49.283Z,93.07
2022-11-28T17:32:49.250Z,93.07
2022-11-28T17:37:49.298Z,92.97
2022-11-28T17:42:49.121Z,92.97
2022-11-28T17:47:49.059Z,93.27
2022-11-28T17:52:49.014Z,93.27
2022-11-28T17:57:48.926Z,94.20
2022-11-28T18:02:50.362Z,93.59
2022-11-28T18:07:49.403Z,93.59
2022-11-28T18:12:48.949Z,93.38
2022-11-28T18:17:48.959Z,93.33
2022-11-28T18:22:48.801Z,93.02
2022-11-28T18:27:48.625Z,93.59
2022-11-28T18:32:48.578Z,93.02
2022-11-28T18:37:48.578Z,93.02
2022-11-28T18:42:48.490Z,92.93
2022-11-28T18:47:48.521Z,92.72
2022-11-28T18:52:48.439Z,92.78
2022-11-28T18:57:48.340Z,92.57
2022-11-28T19:02:48.279Z,92.36
2022-11-28T19:07:48.257Z,92.57
2022-11-28T19:12:49.205Z,92.98
2022-11-28T19:17:48.144Z,92.88
2022-11-28T19:22:48.160Z,92.78
2022-11-28T19:27:47.992Z,92.98
2022-11-28T19:32:47.884Z,93.19
2022-11-28T19:37:47.845Z,93.49
2022-11-28T19:42:47.795Z,93.39
2022-11-28T19:47:47.725Z,93.29
2022-11-28T19:52:47.687Z,93.60
2022-11-28T19:57:47.652Z,93.60
2022-11-28T20:02:47.590Z,93.39
2022-11-28T20:07:47.686Z,93.70
2022-11-28T20:12:47.471Z,93.49
2022-11-28T20:17:47.473Z,93.70
2022-11-28T20:22:47.493Z,93.45
2022-11-28T20:27:47.299Z,93.80
2022-11-28T20:32:47.398Z,93.80
2022-11-28T20:37:47.326Z,93.90
2022-11-28T20:42:47.304Z,93.49
2022-11-28T20:47:49.980Z,93.80
2022-11-28T20:52:47.122Z,93.66
2022-11-28T20:57:47.059Z,93.55
2022-11-28T21:02:46.925Z,93.55
2022-11-28T21:07:47.058Z,93.45
2022-11-28T21:12:47.042Z,93.35
2022-11-28T21:17:46.991Z,93.25
2022-11-28T21:22:46.703Z,93.25
2022-11-28T21:27:46.667Z,93.15
2022-11-28T21:32:46.582Z,93.45
2022-11-28T21:37:46.575Z,93.76
2022-11-28T21:42:46.480Z,93.55
2022-11-28T21:47:46.478Z,93.45
2022-11-28T21:52:46.537Z,93.45
2022-11-28T21:57:46.308Z,93.70
2022-11-28T22:02:46.306Z,94.01
2022-11-28T22:07:46.376Z,93.55
2022-11-28T22:12:46.193Z,93.15
2022-11-28T22:17:46.106Z,93.35
2022-11-28T22:22:46.070Z,93.15
2022-11-28T22:27:45.992Z,93.25
2022-11-28T22:32:45.961Z,93.45
2022-11-28T22:37:45.995Z,93.25
2022-11-28T22:42:45.891Z,93.55
2022-11-28T22:47:45.921Z,93.45
2022-11-28T22:52:45.746Z,93.35
2022-11-28T22:57:45.778Z,93.45
2022-11-28T23:02:45.791Z,93.25
2022-11-28T23:07:45.582Z,93.15
2022-11-28T23:12:45.536Z,93.70
2022-11-28T23:17:45.485Z,93.90
2022-11-28T23:22:45.428Z,93.86
2022-11-28T23:27:54.207Z,93.45
2022-11-28T23:32:45.316Z,93.15
2022-11-28T23:37:45.346Z,93.04
2022-11-28T23:42:45.273Z,93.04
2022-11-28T23:47:45.215Z,92.94
2022-11-28T23:52:45.236Z,93.25
2022-11-28T23:57:45.157Z,93.55
